Time;durP1;ratioP1;P1;durP2;ratioP2;P2;SDS_P1;SDS_P2;PMS_P1;PMS_P2;Temp;Humidity;BMP_temperature;BMP_pressure;BME280_temperature;BME280_humidity;BME280_pressure;Samples;Min_cycle;Max_cycle;Signal;HPM_P1;HPM_P2
2022/11/04 00:01:40;;;;;;;8.00;3.63;;;12.10;99.90;;;;;;5072693;28;20050;-83
2022/11/04 00:04:06;;;;;;;5.60;2.60;;;12.00;99.90;;;;;;5089483;28;20143;-83
2022/11/04 00:06:32;;;;;;;5.32;2.00;;;11.90;99.90;;;;;;5089783;28;20481;-83
2022/11/04 00:08:58;;;;;;;3.03;1.20;;;11.80;99.90;;;;;;5089896;28;20040;-83
2022/11/04 00:14:09;;;;;;;2.35;0.95;;;11.80;99.90;;;;;;5089874;28;20197;-83
2022/11/04 00:19:20;;;;;;;2.17;0.70;;;11.70;99.90;;;;;;5089931;28;20036;-82
2022/11/04 00:30:00;;;;;;;0.57;0.35;;;11.50;99.90;;;;;;5090099;28;20044;-83
2022/11/04 00:35:11;;;;;;;2.00;0.40;;;11.40;99.90;;;;;;5089518;28;20505;-83
2022/11/04 00:37:41;;;;;;;1.15;0.40;;;11.50;99.90;;;;;;5072917;28;20036;-83
2022/11/04 00:40:09;;;;;;;0.95;0.43;;;11.40;99.90;;;;;;5073710;28;20036;-83
2022/11/04 00:42:35;;;;;;;1.75;0.30;;;11.40;99.90;;;;;;5093313;28;20043;-83
2022/11/04 00:45:01;;;;;;;0.88;0.30;;;11.40;99.90;;;;;;5093657;28;20032;-83
2022/11/04 00:47:26;;;;;;;1.88;0.43;;;11.40;99.90;;;;;;5093406;28;20048;-83
2022/11/04 00:49:52;;;;;;;2.40;0.40;;;11.40;99.90;;;;;;5093509;28;20129;-83
2022/11/04 00:52:18;;;;;;;2.13;0.40;;;11.40;99.90;;;;;;5093340;28;20047;-82
2022/11/04 00:54:44;;;;;;;2.83;0.40;;;11.40;99.90;;;;;;5076276;28;20044;-83
2022/11/04 00:57:10;;;;;;;1.60;0.40;;;11.30;99.90;;;;;;5093285;28;20032;-82
2022/11/04 00:59:36;;;;;;;1.48;0.30;;;11.30;99.90;;;;;;5076625;28;20519;-83
2022/11/04 01:02:02;;;;;;;1.45;0.50;;;11.30;99.90;;;;;;5093071;28;20112;-82
2022/11/04 01:04:28;;;;;;;1.70;0.65;;;11.30;99.90;;;;;;5092946;28;20046;-82
2022/11/04 01:06:53;;;;;;;1.02;0.38;;;11.30;99.90;;;;;;5076137;28;20063;-82
2022/11/04 01:09:19;;;;;;;2.42;0.45;;;11.20;99.90;;;;;;5076185;28;20035;-82
2022/11/04 01:11:45;;;;;;;1.90;0.55;;;11.20;99.90;;;;;;5093124;28;20482;-83
2022/11/04 01:14:10;;;;;;;1.75;0.38;;;11.20;99.90;;;;;;5075220;28;20043;-82
2022/11/04 01:16:36;;;;;;;4.20;1.10;;;11.20;99.90;;;;;;5093265;28;20505;-83
2022/11/04 01:19:02;;;;;;;5.75;0.52;;;11.20;99.90;;;;;;5093335;28;20493;-82
2022/11/04 01:21:28;;;;;;;1.38;0.40;;;11.10;99.90;;;;;;5093189;28;20085;-83
2022/11/04 01:23:54;;;;;;;2.45;0.70;;;11.10;99.90;;;;;;5075874;28;20350;-83
2022/11/04 01:26:23;;;;;;;0.80;0.50;;;11.10;99.90;;;;;;5076524;28;20673;-83
2022/11/04 01:28:51;;;;;;;1.08;0.45;;;11.10;99.90;;;;;;5076442;28;20094;-83
2022/11/04 01:31:20;;;;;;;1.10;0.38;;;11.10;99.90;;;;;;5076250;28;20043;-82
2022/11/04 01:33:46;;;;;;;1.25;0.30;;;11.00;99.90;;;;;;5092957;28;20044;-82
2022/11/04 01:36:12;;;;;;;2.83;0.57;;;11.00;99.90;;;;;;5075854;28;20051;-82
2022/11/04 01:38:38;;;;;;;1.50;0.40;;;11.00;99.90;;;;;;5092905;28;20040;-82
2022/11/04 01:41:04;;;;;;;3.17;0.60;;;11.00;99.90;;;;;;5092834;28;20038;-82
2022/11/04 01:44:22;;;;;;;5.15;0.93;;;10.90;99.90;;;;;;5092466;28;20089;-82
2022/11/04 01:46:51;;;;;;;2.17;0.70;;;10.90;99.90;;;;;;4978777;28;20048;-83
2022/11/04 01:49:38;;;;;;;4.22;0.50;;;10.90;99.90;;;;;;4979079;28;20268;-83
2022/11/04 01:52:08;;;;;;;2.75;0.90;;;11.00;99.90;;;;;;4994042;28;20196;-83
2022/11/04 01:54:37;;;;;;;3.58;0.80;;;11.00;99.90;;;;;;4995341;28;20037;-83
2022/11/04 01:57:06;;;;;;;2.97;1.00;;;11.00;99.90;;;;;;4978798;28;20065;-83
2022/11/04 01:59:35;;;;;;;3.67;1.23;;;11.00;99.90;;;;;;4995121;28;20034;-83
2022/11/04 02:02:02;;;;;;;3.90;1.08;;;11.00;99.90;;;;;;4994731;28;20045;-83
2022/11/04 02:04:29;;;;;;;4.97;1.40;;;11.00;99.90;;;;;;4995162;28;20081;-83
2022/11/04 02:07:04;;;;;;;2.83;1.30;;;11.00;99.90;;;;;;4994762;28;20134;-82
2022/11/04 02:09:31;;;;;;;3.67;1.63;;;11.00;99.90;;;;;;4994923;28;20049;-83
2022/11/04 02:14:42;;;;;;;5.65;1.50;;;11.10;99.90;;;;;;4994614;28;20050;-83
2022/11/04 02:17:16;;;;;;;3.40;1.20;;;11.10;99.90;;;;;;4994698;28;20038;-83
2022/11/04 02:19:57;;;;;;;5.10;1.92;;;11.10;99.90;;;;;;4994662;28;20046;-82
2022/11/04 02:22:37;;;;;;;4.05;1.67;;;11.10;99.90;;;;;;5055171;28;20408;-83
2022/11/04 02:25:15;;;;;;;5.10;2.08;;;11.20;99.90;;;;;;5092147;28;20037;-82
2022/11/04 02:28:19;;;;;;;6.07;2.38;;;11.10;99.90;;;;;;5091860;28;20093;-83
2022/11/04 02:30:56;;;;;;;7.53;2.75;;;11.20;99.90;;;;;;5028691;28;20052;-83
2022/11/04 02:33:29;;;;;;;8.48;2.75;;;11.20;99.90;;;;;;5091578;28;20439;-83
2022/11/04 02:36:01;;;;;;;8.27;2.75;;;11.20;99.90;;;;;;5091634;28;20050;-82
2022/11/04 02:38:54;;;;;;;6.83;2.67;;;11.20;99.90;;;;;;5091834;28;20072;-82
2022/11/04 02:41:22;;;;;;;6.78;2.63;;;11.20;99.90;;;;;;5074811;28;20043;-83
2022/11/04 02:44:05;;;;;;;8.70;2.95;;;11.20;99.90;;;;;;5074597;28;20378;-83
2022/11/04 02:46:39;;;;;;;;;;;11.30;99.90;;;;;;5075024;28;20040;-83
2022/11/04 02:49:19;;;;;;;7.00;2.60;;;11.20;99.90;;;;;;5091490;28;19923;-83
2022/11/04 02:52:35;;;;;;;8.10;3.58;;;11.30;99.90;;;;;;5091435;28;20036;-82
2022/11/04 02:55:06;;;;;;;8.20;3.25;;;11.20;99.90;;;;;;4977794;28;20053;-83
2022/11/04 02:57:34;;;;;;;6.50;3.15;;;11.20;99.90;;;;;;5084406;28;20048;-83
2022/11/04 03:00:09;;;;;;;8.57;3.45;;;11.20;99.90;;;;;;5091140;28;20081;-82
2022/11/04 03:02:41;;;;;;;4.88;2.13;;;11.20;99.90;;;;;;5091077;28;20036;-83
2022/11/04 03:05:12;;;;;;;5.88;1.98;;;11.20;99.90;;;;;;5074431;28;20066;-83
2022/11/04 03:07:40;;;;;;;6.22;2.30;;;11.20;99.90;;;;;;5091149;28;20078;-82
2022/11/04 03:10:14;;;;;;;6.13;2.75;;;11.10;99.90;;;;;;5074271;28;20044;-83
2022/11/04 03:12:50;;;;;;;6.75;2.42;;;11.10;99.90;;;;;;5073744;28;20524;-83
2022/11/04 03:15:27;;;;;;;6.32;2.42;;;11.10;99.90;;;;;;5091058;28;20047;-83
2022/11/04 03:18:17;;;;;;;6.93;2.60;;;11.10;99.90;;;;;;5091232;28;20540;-83
2022/11/04 03:20:47;;;;;;;7.05;2.53;;;11.10;99.90;;;;;;5091058;28;20078;-83
2022/11/04 03:23:13;;;;;;;4.40;1.73;;;11.00;99.90;;;;;;5090524;28;20089;-83
2022/11/04 03:25:43;;;;;;;5.95;2.25;;;11.00;99.90;;;;;;5090974;28;20036;-83
2022/11/04 03:28:36;;;;;;;6.00;2.05;;;11.00;99.90;;;;;;5090731;28;20044;-83
2022/11/04 03:31:05;;;;;;;5.55;1.70;;;11.00;99.90;;;;;;5090913;28;20521;-83
2022/11/04 03:33:39;;;;;;;4.55;1.67;;;10.90;99.90;;;;;;5090602;28;20076;-83
2022/11/04 03:36:07;;;;;;;4.75;1.70;;;10.90;99.90;;;;;;5073892;28;20040;-83
2022/11/04 03:38:34;;;;;;;6.57;2.45;;;10.90;99.90;;;;;;5090659;28;20039;-83
2022/11/04 03:41:02;;;;;;;5.72;2.13;;;10.90;99.90;;;;;;5073854;28;20043;-83
2022/11/04 03:43:28;;;;;;;5.30;2.13;;;10.90;99.90;;;;;;5073477;28;20040;-83
2022/11/04 03:45:54;;;;;;;4.57;1.67;;;10.90;99.90;;;;;;5090929;28;20047;-82
2022/11/04 03:48:21;;;;;;;4.05;1.60;;;10.80;99.90;;;;;;5074037;28;20646;-82
2022/11/04 03:50:48;;;;;;;4.50;1.52;;;10.80;99.90;;;;;;5090577;28;20127;-83
2022/11/04 03:53:19;;;;;;;4.05;1.33;;;10.80;99.90;;;;;;5073287;28;20044;-83
2022/11/04 03:56:05;;;;;;;1.75;0.60;;;10.80;99.90;;;;;;5073672;28;20516;-83
2022/11/04 03:58:52;;;;;;;3.85;0.82;;;10.70;99.90;;;;;;5090603;28;20047;-83
2022/11/04 04:01:56;;;;;;;2.78;0.80;;;10.70;99.90;;;;;;5090206;28;20036;-82
2022/11/04 04:04:29;;;;;;;3.30;0.50;;;10.60;99.90;;;;;;4976901;28;20467;-82
2022/11/04 04:07:05;;;;;;;1.27;0.57;;;10.60;99.90;;;;;;4993144;28;20737;-83
2022/11/04 04:09:39;;;;;;;0.98;0.50;;;10.50;99.90;;;;;;4993160;28;20550;-82
2022/11/04 04:12:09;;;;;;;1.35;0.30;;;10.50;99.90;;;;;;4976374;28;20049;-83
2022/11/04 04:14:58;;;;;;;0.98;0.30;;;10.40;99.90;;;;;;4992949;28;20042;-82
2022/11/04 04:17:30;;;;;;;1.65;0.45;;;10.40;99.90;;;;;;4980682;28;20038;-82
2022/11/04 04:20:18;;;;;;;1.25;0.22;;;10.40;99.90;;;;;;4997022;28;20038;-82
2022/11/04 04:22:53;;;;;;;0.80;0.15;;;10.40;99.90;;;;;;4996363;28;20050;-82
2022/11/04 04:28:08;;;;;;;2.47;0.32;;;10.30;99.90;;;;;;4996629;28;20511;-83
2022/11/04 04:30:35;;;;;;;2.10;0.77;;;10.30;99.90;;;;;;4980498;28;20049;-82
2022/11/04 04:33:07;;;;;;;0.75;0.30;;;10.30;99.90;;;;;;4996259;28;20038;-82
2022/11/04 04:35:40;;;;;;;1.17;0.30;;;10.30;99.90;;;;;;5051210;28;20048;-82
2022/11/04 04:47:06;;;;;;;2.20;0.40;;;10.30;99.90;;;;;;5093740;28;20421;-82
2022/11/04 04:49:33;;;;;;;2.30;0.77;;;10.20;99.90;;;;;;5076869;28;20043;-82
2022/11/04 04:52:02;;;;;;;1.15;0.57;;;10.30;99.90;;;;;;5076798;28;20085;-82
2022/11/04 04:54:28;;;;;;;2.65;0.63;;;10.30;99.90;;;;;;5093592;28;20044;-83
2022/11/04 04:56:54;;;;;;;3.13;0.75;;;10.30;99.90;;;;;;5076706;28;20028;-83
2022/11/04 04:59:19;;;;;;;2.30;0.70;;;10.20;99.90;;;;;;5076761;28;20040;-82
2022/11/04 05:01:45;;;;;;;1.25;0.57;;;10.20;99.90;;;;;;5093436;28;20094;-83
2022/11/04 05:04:10;;;;;;;1.23;0.68;;;10.30;99.90;;;;;;5093212;28;20401;-82
2022/11/04 05:06:36;;;;;;;2.25;0.57;;;10.30;99.90;;;;;;5093480;28;20043;-83
2022/11/04 05:09:02;;;;;;;1.67;0.73;;;10.30;99.90;;;;;;5093530;28;20039;-82
2022/11/04 05:11:27;;;;;;;2.80;0.70;;;10.30;99.90;;;;;;5093282;28;20451;-82
2022/11/04 05:13:53;;;;;;;3.17;0.70;;;10.30;99.90;;;;;;5093119;28;20044;-82
2022/11/04 05:16:19;;;;;;;1.88;0.60;;;10.20;99.90;;;;;;5093216;28;20097;-82
2022/11/04 05:18:44;;;;;;;1.63;0.68;;;10.20;99.90;;;;;;5093540;28;20525;-82
2022/11/04 05:21:12;;;;;;;4.38;1.20;;;10.20;99.90;;;;;;5076405;28;20119;-82
2022/11/04 05:23:38;;;;;;;3.13;0.70;;;10.20;99.90;;;;;;5092720;28;20040;-82
2022/11/04 05:26:04;;;;;;;2.15;0.63;;;10.20;99.90;;;;;;5092609;28;20067;-82
2022/11/04 05:28:30;;;;;;;1.90;0.57;;;10.20;99.90;;;;;;5092303;28;20409;-83
2022/11/04 05:30:56;;;;;;;1.42;0.50;;;10.10;99.90;;;;;;5092583;28;20047;-82
2022/11/04 05:33:22;;;;;;;2.45;0.68;;;10.10;99.90;;;;;;5076004;28;20725;-82
2022/11/04 05:35:47;;;;;;;4.78;0.80;;;10.10;99.90;;;;;;5092885;28;20058;-83
2022/11/04 05:38:13;;;;;;;1.08;0.50;;;10.00;99.90;;;;;;5092859;28;20039;-82
2022/11/04 05:40:38;;;;;;;1.80;0.30;;;10.00;99.90;;;;;;5092924;28;20047;-83
2022/11/04 05:43:04;;;;;;;1.60;0.40;;;9.90;99.90;;;;;;5092487;28;20390;-82
2022/11/04 05:45:30;;;;;;;1.65;0.47;;;9.90;99.90;;;;;;5092600;28;20040;-82
2022/11/04 05:48:00;;;;;;;2.85;0.38;;;9.90;99.90;;;;;;5092700;28;20049;-82
2022/11/04 05:50:25;;;;;;;3.17;0.60;;;9.80;99.90;;;;;;5076062;28;20040;-82
2022/11/04 05:52:51;;;;;;;2.40;0.50;;;9.80;99.90;;;;;;5092504;28;20444;-82
2022/11/04 05:55:17;;;;;;;1.95;0.40;;;9.80;99.90;;;;;;5092679;28;20390;-82
2022/11/04 05:57:42;;;;;;;1.33;0.50;;;9.70;99.90;;;;;;5092795;28;20542;-82
2022/11/04 06:00:11;;;;;;;0.45;0.30;;;9.70;99.90;;;;;;5075422;28;20557;-82
2022/11/04 06:02:37;;;;;;;1.35;0.30;;;9.70;99.90;;;;;;5092368;28;20040;-82
2022/11/04 06:05:03;;;;;;;2.40;0.65;;;9.70;99.90;;;;;;5092318;28;20084;-82
2022/11/04 06:07:28;;;;;;;2.22;0.60;;;9.60;99.90;;;;;;5092221;28;20040;-82
2022/11/04 06:09:54;;;;;;;1.75;0.93;;;9.50;99.90;;;;;;5092584;28;20048;-82
2022/11/04 06:12:19;;;;;;;2.83;0.88;;;9.50;99.90;;;;;;5091770;28;20101;-82
2022/11/04 06:14:45;;;;;;;3.65;1.00;;;9.50;99.90;;;;;;5092175;28;20039;-82
2022/11/04 06:17:16;;;;;;;3.10;1.00;;;9.50;99.90;;;;;;5092102;28;20553;-82
2022/11/04 06:19:42;;;;;;;3.70;1.23;;;9.50;99.90;;;;;;5075235;28;20122;-82
2022/11/04 06:22:13;;;;;;;2.70;1.00;;;9.50;99.90;;;;;;5091748;28;20115;-82
2022/11/04 06:24:39;;;;;;;2.55;1.00;;;9.50;99.90;;;;;;5091913;28;20069;-82
2022/11/04 06:27:04;;;;;;;2.83;1.35;;;9.50;99.90;;;;;;5075095;28;20465;-82
2022/11/04 06:29:31;;;;;;;3.10;1.33;;;9.50;99.90;;;;;;5091797;28;20447;-82
2022/11/04 06:31:56;;;;;;;4.85;1.38;;;9.50;99.90;;;;;;5074835;28;20036;-82
2022/11/04 06:34:22;;;;;;;2.58;1.15;;;9.50;99.90;;;;;;5091832;28;20078;-82
2022/11/04 06:36:48;;;;;;;4.25;1.20;;;9.50;99.90;;;;;;5091606;28;20490;-82
2022/11/04 06:39:14;;;;;;;2.70;1.10;;;9.50;99.90;;;;;;5091229;28;20081;-82
2022/11/04 06:41:40;;;;;;;2.25;0.93;;;9.60;99.90;;;;;;5074966;28;20404;-82
2022/11/04 06:44:05;;;;;;;4.32;1.00;;;9.60;99.90;;;;;;5091175;28;20119;-82
2022/11/04 06:46:40;;;;;;;2.50;0.95;;;9.60;99.90;;;;;;5091622;28;20043;-82
2022/11/04 06:49:14;;;;;;;4.10;1.30;;;9.60;99.90;;;;;;5074290;28;20036;-82
2022/11/04 06:51:40;;;;;;;3.17;1.00;;;9.60;99.90;;;;;;5091823;28;20180;-82
2022/11/04 06:54:05;;;;;;;3.97;1.10;;;9.60;99.90;;;;;;5074165;28;20489;-82
2022/11/04 06:56:31;;;;;;;2.60;1.25;;;9.60;99.90;;;;;;5091235;28;20083;-82
2022/11/04 06:58:57;;;;;;;4.80;1.40;;;9.60;99.90;;;;;;5091590;28;20040;-82
2022/11/04 07:01:25;;;;;;;3.83;1.00;;;9.60;99.90;;;;;;5091560;28;20036;-82
2022/11/04 07:03:54;;;;;;;2.88;0.90;;;9.50;99.90;;;;;;5090948;28;20032;-82
2022/11/04 07:06:20;;;;;;;4.32;1.00;;;9.50;99.90;;;;;;5091199;28;20040;-82
2022/11/04 07:08:47;;;;;;;5.03;1.30;;;9.50;99.90;;;;;;5090744;28;20036;-82
2022/11/04 07:11:14;;;;;;;3.38;1.15;;;9.50;99.90;;;;;;5090786;28;20146;-82
2022/11/04 07:13:40;;;;;;;3.70;1.25;;;9.40;99.90;;;;;;5091008;28;20100;-82
2022/11/04 07:16:07;;;;;;;4.32;1.20;;;9.40;99.90;;;;;;5091134;28;20054;-82
2022/11/04 07:18:33;;;;;;;6.78;1.60;;;9.40;99.90;;;;;;5090657;28;20044;-82
2022/11/04 07:20:59;;;;;;;5.28;1.20;;;9.30;99.90;;;;;;5091280;28;20093;-82
2022/11/04 07:23:25;;;;;;;6.03;1.33;;;9.40;99.90;;;;;;5073530;28;20039;-82
2022/11/04 07:25:53;;;;;;;5.43;1.83;;;9.40;99.90;;;;;;5074098;28;20109;-81
2022/11/04 07:28:19;;;;;;;7.28;2.13;;;9.50;99.90;;;;;;5090783;28;20040;-82
2022/11/04 07:30:44;;;;;;;8.40;2.45;;;9.50;99.90;;;;;;5091129;28;20043;-82
2022/11/04 07:33:10;;;;;;;9.13;2.72;;;9.50;99.90;;;;;;5091864;28;20505;-82
2022/11/04 07:35:35;;;;;;;10.32;3.22;;;9.60;99.90;;;;;;5087772;28;20489;-82
2022/11/04 07:38:02;;;;;;;7.55;2.90;;;9.60;99.90;;;;;;5070813;28;20055;-82
2022/11/04 07:40:28;;;;;;;8.40;3.53;;;9.60;99.90;;;;;;5087714;28;20044;-82
2022/11/04 07:42:54;;;;;;;7.78;3.58;;;9.60;99.90;;;;;;5070422;28;20077;-82
2022/11/04 07:45:20;;;;;;;10.13;3.97;;;9.60;99.90;;;;;;5087660;28;20043;-82
2022/11/04 07:47:45;;;;;;;10.50;3.72;;;9.60;99.90;;;;;;5070743;28;20093;-82
2022/11/04 07:50:11;;;;;;;16.70;4.80;;;9.60;99.90;;;;;;5069965;28;20130;-82
2022/11/04 07:52:37;;;;;;;11.70;4.80;;;9.60;99.90;;;;;;5087191;28;20050;-82
2022/11/04 07:55:02;;;;;;;12.25;5.28;;;9.70;99.90;;;;;;5087399;28;20040;-82
2022/11/04 07:57:28;;;;;;;10.65;5.43;;;9.70;99.90;;;;;;5072250;28;20039;-82
2022/11/04 07:59:53;;;;;;;11.15;5.95;;;9.70;99.90;;;;;;5090490;28;20036;-82
2022/11/04 08:02:19;;;;;;;13.48;6.18;;;9.80;99.90;;;;;;5073388;28;20039;-83
2022/11/04 08:04:44;;;;;;;13.68;6.80;;;9.80;99.90;;;;;;5090712;28;20058;-82
2022/11/04 08:07:10;;;;;;;13.23;7.05;;;9.80;99.90;;;;;;5073553;28;20036;-82
2022/11/04 08:09:36;;;;;;;13.25;6.07;;;9.80;99.90;;;;;;5073879;28;20032;-82
2022/11/04 08:12:03;;;;;;;15.10;6.38;;;9.80;99.90;;;;;;5089999;28;20535;-82
2022/11/04 08:14:29;;;;;;;14.32;6.22;;;9.80;99.90;;;;;;5090489;28;20031;-82
2022/11/04 08:16:55;;;;;;;13.35;6.53;;;9.90;99.90;;;;;;5073466;28;20501;-82
2022/11/04 08:19:20;;;;;;;18.02;7.72;;;9.90;99.90;;;;;;5090245;28;20097;-82
2022/11/04 08:21:46;;;;;;;16.35;7.40;;;10.00;99.90;;;;;;5089206;28;20034;-82
2022/11/04 08:24:11;;;;;;;15.32;7.28;;;10.00;99.90;;;;;;5089543;28;20113;-83
2022/11/04 08:26:37;;;;;;;14.77;7.78;;;10.10;99.90;;;;;;5090259;28;20131;-82
2022/11/04 08:29:07;;;;;;;15.60;7.18;;;10.10;99.90;;;;;;5090177;28;20489;-82
2022/11/04 08:31:33;;;;;;;17.70;7.05;;;10.10;99.90;;;;;;5089201;28;20040;-82
2022/11/04 08:33:58;;;;;;;12.55;6.78;;;10.10;99.90;;;;;;5072256;28;20074;-83
2022/11/04 08:36:30;;;;;;;12.45;6.75;;;10.00;99.90;;;;;;5089729;28;20058;-82
2022/11/04 08:38:56;;;;;;;14.70;7.43;;;10.00;99.90;;;;;;5073520;28;20040;-82
2022/11/04 08:41:25;;;;;;;15.32;8.63;;;10.00;99.90;;;;;;5090133;28;20039;-82
2022/11/04 08:43:51;;;;;;;17.98;8.40;;;10.10;99.90;;;;;;5089738;28;20044;-82
2022/11/04 08:46:17;;;;;;;15.35;7.95;;;10.10;99.90;;;;;;5073450;28;20072;-82
2022/11/04 08:48:44;;;;;;;14.57;7.80;;;10.20;99.90;;;;;;5089508;28;20515;-82
2022/11/04 08:51:16;;;;;;;17.85;9.13;;;10.30;99.90;;;;;;5072906;28;20082;-82
2022/11/04 08:53:42;;;;;;;14.13;7.22;;;10.40;99.90;;;;;;5089239;28;20036;-83
2022/11/04 08:56:11;;;;;;;15.27;7.80;;;10.40;99.90;;;;;;5090360;28;20404;-82
2022/11/04 08:58:36;;;;;;;15.27;7.90;;;10.50;99.90;;;;;;5090260;28;20086;-82
2022/11/04 09:01:04;;;;;;;15.90;7.82;;;10.60;99.90;;;;;;5090350;28;20036;-82
2022/11/04 09:03:29;;;;;;;16.38;8.30;;;10.60;99.90;;;;;;5076355;28;20427;-83
2022/11/04 09:05:56;;;;;;;15.73;8.40;;;10.60;99.90;;;;;;5093566;28;20032;-82
2022/11/04 09:08:22;;;;;;;15.43;8.55;;;10.50;99.90;;;;;;5093327;28;20044;-83
2022/11/04 09:10:47;;;;;;;17.02;10.07;;;10.60;99.90;;;;;;5076368;28;20048;-82
2022/11/04 09:13:15;;;;;;;17.20;8.52;;;10.60;99.90;;;;;;5093030;28;20408;-83
2022/11/04 09:15:41;;;;;;;18.95;9.35;;;10.60;99.90;;;;;;5093147;28;20082;-82
2022/11/04 09:18:07;;;;;;;19.77;10.43;;;10.60;99.90;;;;;;5110040;28;20617;-83
2022/11/04 09:20:37;;;;;;;20.83;9.63;;;10.50;99.90;;;;;;5093037;28;20058;-82
2022/11/04 09:23:03;;;;;;;20.58;10.25;;;10.50;99.90;;;;;;5093038;28;20032;-82
2022/11/04 09:25:29;;;;;;;20.35;11.35;;;10.50;99.90;;;;;;5092704;28;20105;-82
2022/11/04 09:27:54;;;;;;;21.52;10.10;;;10.60;99.90;;;;;;5092713;28;20481;-83
2022/11/04 09:30:20;;;;;;;18.45;11.18;;;10.60;99.90;;;;;;5092306;28;20085;-83
2022/11/04 09:32:45;;;;;;;23.75;10.63;;;10.60;99.90;;;;;;5092126;28;20097;-83
2022/11/04 09:35:11;;;;;;;22.00;11.20;;;10.70;99.90;;;;;;5072886;28;20043;-83
2022/11/04 09:37:36;;;;;;;22.45;11.63;;;10.80;99.90;;;;;;5091916;28;20028;-83
2022/11/04 09:40:03;;;;;;;24.58;11.82;;;10.80;99.90;;;;;;5091960;28;20059;-83
2022/11/04 09:42:52;;;;;;;22.40;11.65;;;10.90;99.90;;;;;;5075851;28;20112;-83
2022/11/04 09:45:25;;;;;;;22.63;11.48;;;11.00;99.90;;;;;;5092017;28;20039;-83
2022/11/04 09:47:54;;;;;;;22.45;11.90;;;11.10;99.90;;;;;;5092741;28;20044;-83
2022/11/04 09:50:40;;;;;;;24.67;11.38;;;11.10;99.90;;;;;;5092744;28;20070;-83
2022/11/04 09:53:18;;;;;;;24.00;13.35;;;11.10;99.90;;;;;;5075003;28;20040;-83
2022/11/04 09:55:55;;;;;;;26.52;14.98;;;11.10;99.90;;;;;;5075292;28;20576;-83
2022/11/04 09:58:21;;;;;;;24.15;14.35;;;11.20;99.90;;;;;;5092084;28;20044;-83
2022/11/04 10:00:56;;;;;;;23.85;12.70;;;11.20;99.90;;;;;;5092045;28;20040;-83
2022/11/04 10:03:40;;;;;;;22.83;12.55;;;11.20;99.90;;;;;;5075263;28;20570;-83
2022/11/04 10:06:24;;;;;;;22.92;12.45;;;11.20;99.90;;;;;;5092363;28;20040;-83
2022/11/04 10:09:16;;;;;;;23.63;12.77;;;11.20;99.90;;;;;;5075524;28;20044;-83
2022/11/04 10:12:00;;;;;;;22.00;12.02;;;11.20;99.90;;;;;;5092412;28;20090;-83
2022/11/04 10:14:48;;;;;;;25.35;14.25;;;11.20;99.90;;;;;;5074061;28;20036;-83
2022/11/04 10:17:32;;;;;;;23.42;12.68;;;11.20;99.90;;;;;;5126615;27;20378;-83
2022/11/04 10:20:13;;;;;;;27.13;13.40;;;11.20;99.90;;;;;;5091634;28;20131;-83
2022/11/04 10:23:23;;;;;;;25.60;14.07;;;11.30;99.90;;;;;;5074081;28;20416;-83
2022/11/04 10:25:59;;;;;;;28.55;16.23;;;11.30;99.90;;;;;;5074352;28;20409;-83
2022/11/04 10:28:32;;;;;;;24.02;14.10;;;11.40;99.90;;;;;;5091976;28;20048;-83
2022/11/04 10:30:59;;;;;;;22.60;13.38;;;11.60;99.90;;;;;;5075029;28;20051;-83
2022/11/04 10:33:36;;;;;;;23.30;14.18;;;11.70;99.90;;;;;;5091420;28;20497;-83
2022/11/04 10:36:07;;;;;;;24.45;13.40;;;11.90;99.90;;;;;;5091835;28;20405;-83
2022/11/04 10:38:54;;;;;;;22.35;13.77;;;12.10;99.90;;;;;;5091382;28;20036;-83
2022/11/04 10:41:23;;;;;;;24.38;14.23;;;12.20;99.90;;;;;;5091058;28;20044;-83
2022/11/04 10:43:52;;;;;;;24.67;14.32;;;12.30;99.90;;;;;;5091578;28;20108;-83
2022/11/04 10:46:52;;;;;;;21.60;12.80;;;12.50;99.90;;;;;;5091823;28;20047;-83
2022/11/04 10:49:37;;;;;;;21.38;12.02;;;12.60;99.90;;;;;;5073589;28;20052;-83
2022/11/04 10:52:05;;;;;;;21.42;12.40;;;12.70;99.90;;;;;;5074545;28;20040;-83
2022/11/04 10:54:39;;;;;;;21.38;12.52;;;12.70;99.90;;;;;;5091297;28;20046;-83
2022/11/04 10:57:04;;;;;;;21.00;12.07;;;12.70;99.90;;;;;;5090935;28;20567;-83
2022/11/04 10:59:55;;;;;;;21.52;12.55;;;12.60;99.90;;;;;;5091204;28;20036;-83
2022/11/04 11:02:36;;;;;;;21.63;12.40;;;12.50;99.90;;;;;;5073912;28;20036;-83
2022/11/04 11:05:17;;;;;;;19.25;11.63;;;12.50;99.90;;;;;;5074309;28;20078;-83
2022/11/04 11:07:44;;;;;;;23.23;11.68;;;12.50;99.90;;;;;;5074191;28;20093;-83
2022/11/04 11:10:21;;;;;;;20.50;12.07;;;12.50;99.90;;;;;;5090848;28;20494;-83
2022/11/04 11:12:57;;;;;;;22.98;12.43;;;12.70;99.90;;;;;;5090119;28;20043;-83
2022/11/04 11:15:24;;;;;;;24.92;13.07;;;12.70;99.90;;;;;;5090727;28;20043;-83
2022/11/04 11:17:58;;;;;;;21.75;13.27;;;12.80;99.90;;;;;;5074398;28;20397;-83
2022/11/04 11:20:25;;;;;;;22.52;20.17;;;13.10;99.90;;;;;;5073386;28;20118;-83
2022/11/04 11:22:53;;;;;;;19.13;12.55;;;13.30;99.90;;;;;;5073359;28;20032;-83
2022/11/04 11:25:27;;;;;;;18.85;11.32;;;13.50;99.90;;;;;;5073613;28;20046;-83
2022/11/04 11:28:11;;;;;;;18.23;11.18;;;13.50;99.90;;;;;;5074320;28;20509;-83
2022/11/04 11:30:42;;;;;;;20.77;18.08;;;13.50;99.90;;;;;;5091192;28;20512;-83
2022/11/04 11:33:23;;;;;;;17.33;10.93;;;13.50;99.90;;;;;;5073853;28;20101;-83
2022/11/04 11:36:19;;;;;;;20.25;11.50;;;13.40;99.90;;;;;;5090703;28;20098;-83
2022/11/04 11:39:15;;;;;;;19.95;11.70;;;13.40;99.90;;;;;;5063753;28;20060;-83
2022/11/04 11:41:58;;;;;;;16.77;10.35;;;13.40;99.90;;;;;;5104529;28;20115;-83
2022/11/04 11:44:37;;;;;;;17.55;9.32;;;13.60;99.90;;;;;;5103363;28;20037;-83
2022/11/04 11:47:18;;;;;;;20.83;16.13;;;13.70;99.90;;;;;;5053673;28;20094;-83
2022/11/04 11:49:44;;;;;;;19.50;15.38;;;13.90;99.90;;;;;;5070101;28;20552;-83
2022/11/04 11:52:29;;;;;;;17.33;10.82;;;14.00;99.90;;;;;;5052923;28;20037;-83
2022/11/04 11:55:03;;;;;;;18.30;10.57;;;14.10;99.90;;;;;;5053587;28;20047;-83
2022/11/04 11:57:49;;;;;;;18.27;10.43;;;14.20;99.90;;;;;;5053728;28;20562;-83
2022/11/04 12:00:17;;;;;;;16.55;13.98;;;14.30;99.90;;;;;;5053664;28;20037;-83
2022/11/04 12:02:58;;;;;;;14.30;12.80;;;14.50;99.90;;;;;;5103683;28;20052;-83
2022/11/04 12:06:03;;;;;;;14.55;8.55;;;14.80;99.90;;;;;;5087147;28;20040;-83
2022/11/04 12:08:46;;;;;;;15.25;7.80;;;15.10;99.90;;;;;;5064721;28;20045;-83
2022/11/04 12:11:32;;;;;;;15.88;8.15;;;15.10;99.90;;;;;;5070071;28;20466;-83
2022/11/04 12:14:10;;;;;;;18.73;14.43;;;14.90;99.90;;;;;;5069282;28;20075;-83
2022/11/04 12:17:09;;;;;;;18.02;14.05;;;14.90;99.90;;;;;;5086904;28;20051;-83
2022/11/04 12:19:53;;;;;;;16.30;14.02;;;15.20;99.90;;;;;;5065256;28;20070;-83
2022/11/04 12:22:25;;;;;;;15.85;8.75;;;15.70;99.90;;;;;;5052506;28;20108;-83
2022/11/04 12:24:57;;;;;;;;;;;16.20;99.90;;;;;;5052862;28;20090;-83
2022/11/04 12:27:37;;;;;;;14.55;12.85;;;16.90;99.90;;;;;;5103719;28;20502;-83
2022/11/04 12:30:05;;;;;;;15.70;11.57;;;17.90;99.90;;;;;;5069652;28;20577;-83
2022/11/04 12:32:46;;;;;;;15.13;11.88;;;18.80;97.90;;;;;;5053023;28;20063;-83
2022/11/04 12:35:21;;;;;;;14.40;10.55;;;19.10;94.30;;;;;;5053231;28;20502;-83
2022/11/04 12:37:55;;;;;;;15.82;11.27;;;19.40;91.20;;;;;;5056966;28;20044;-83
2022/11/04 12:40:27;;;;;;;14.50;11.93;;;19.60;90.00;;;;;;5090638;28;20041;-83
2022/11/04 12:42:58;;;;;;;14.98;10.80;;;19.70;88.40;;;;;;5056744;28;20072;-83
2022/11/04 12:45:49;;;;;;;12.50;9.80;;;19.90;84.80;;;;;;5073674;28;20049;-83
2022/11/04 12:48:43;;;;;;;14.20;9.77;;;20.10;84.30;;;;;;5073717;28;20494;-83
2022/11/04 12:51:17;;;;;;;13.65;9.93;;;19.80;83.40;;;;;;5097949;28;20089;-84
2022/11/04 12:54:01;;;;;;;12.95;10.15;;;19.80;82.10;;;;;;5090934;28;20036;-84
2022/11/04 12:56:37;;;;;;;14.25;9.88;;;20.10;80.90;;;;;;5117199;27;20501;-84
2022/11/04 12:59:32;;;;;;;13.68;9.65;;;19.60;78.90;;;;;;5090920;28;20039;-84
2022/11/04 13:02:10;;;;;;;14.05;9.93;;;18.90;79.70;;;;;;5094190;28;20075;-84
2022/11/04 13:04:43;;;;;;;13.38;9.77;;;18.80;84.10;;;;;;5076416;28;20107;-83
2022/11/04 13:07:48;;;;;;;15.80;10.40;;;19.60;84.10;;;;;;5093180;28;20453;-84
2022/11/04 13:10:52;;;;;;;14.27;9.70;;;20.60;77.20;;;;;;5080722;28;20048;-84
2022/11/04 13:13:25;;;;;;;11.90;8.20;;;20.30;75.70;;;;;;5014535;28;20049;-84
2022/11/04 13:15:55;;;;;;;9.77;4.40;;;20.10;79.10;;;;;;5015079;28;20045;-84
2022/11/04 13:18:24;;;;;;;6.55;2.17;;;19.80;76.70;;;;;;5010280;28;20430;-84
2022/11/04 13:21:24;;;;;;;7.88;2.25;;;19.30;73.40;;;;;;5014846;28;20037;-84
2022/11/04 13:23:50;;;;;;;8.32;1.67;;;18.70;73.70;;;;;;4980747;28;20509;-83
2022/11/04 13:26:17;;;;;;;5.40;0.98;;;18.10;78.10;;;;;;4956884;28;20062;-84
2022/11/04 13:28:58;;;;;;;5.63;1.10;;;17.60;79.70;;;;;;4940919;28;20046;-83
2022/11/04 13:31:46;;;;;;;4.82;1.20;;;17.20;81.20;;;;;;4941082;28;20062;-84
2022/11/04 13:34:38;;;;;;;5.40;1.25;;;16.90;83.30;;;;;;4956402;28;20440;-83
2022/11/04 13:37:29;;;;;;;4.90;1.02;;;16.50;85.90;;;;;;4940777;28;20062;-87
2022/11/04 13:40:05;;;;;;;4.88;1.00;;;16.20;90.30;;;;;;4969288;28;20101;-83